createdAt,value
2018-04-20T00:11:56.375Z,13.11
2018-04-20T00:32:30.585Z,13.17
2018-04-20T00:53:04.525Z,12.58
2018-04-20T01:13:36.724Z,12.33
2018-04-20T01:34:12.308Z,12.22
2018-04-20T01:54:48.195Z,11.67
2018-04-20T02:15:20.388Z,11.51
2018-04-20T02:35:57.922Z,11.28
2018-04-20T02:56:30.011Z,10.93
2018-04-20T03:17:04.058Z,11.28
2018-04-20T03:37:40.589Z,11.01
2018-04-20T03:58:14.602Z,10.56
2018-04-20T04:19:04.927Z,10.57
2018-04-20T04:39:49.106Z,10.03
2018-04-20T05:00:22.536Z,9.95
2018-04-20T05:20:55.653Z,9.84
2018-04-20T05:41:30.012Z,10.15
2018-04-20T06:02:09.270Z,10.76
2018-04-20T06:22:42.391Z,11.46
2018-04-20T06:43:16.847Z,12.24
2018-04-20T07:03:51.400Z,13.14
2018-04-20T07:24:26.059Z,14.01
2018-04-20T08:06:33.131Z,15.94
2018-04-20T08:27:06.251Z,17.07
2018-04-20T08:47:43.365Z,18.05
2018-04-20T09:08:14.974Z,19.21
2018-04-20T09:28:46.850Z,19.95
2018-04-20T09:49:22.127Z,20.88
2018-04-20T10:09:58.641Z,21.61
2018-04-20T10:30:30.842Z,22.43
2018-04-20T10:51:03.094Z,23.20
2018-04-20T11:11:35.843Z,23.66
2018-04-20T11:32:09.255Z,24.29
2018-04-20T11:52:43.611Z,24.61
2018-04-20T12:13:18.910Z,24.91
2018-04-20T12:33:52.926Z,25.33
2018-04-20T12:54:29.364Z,25.55
2018-04-20T13:15:02.241Z,25.90
2018-04-20T13:35:32.877Z,26.31
2018-04-20T13:56:07.985Z,27.60
2018-04-20T14:16:39.761Z,29.02
2018-04-20T14:37:14.111Z,30.07
2018-04-20T14:57:50.306Z,31.17
2018-04-20T15:18:24.656Z,31.97
2018-04-20T15:39:00.863Z,32.79
2018-04-20T15:59:36.130Z,32.62
2018-04-20T16:20:12.317Z,30.15
2018-04-20T16:40:48.511Z,29.03
2018-04-20T17:01:20.766Z,27.52
2018-04-20T17:21:59.976Z,26.14
2018-04-20T17:42:36.740Z,25.03
2018-04-20T17:45:20.828Z,24.79
2018-04-20T18:05:58.403Z,23.76
2018-04-20T18:26:32.627Z,22.61
2018-04-20T18:47:05.835Z,21.71
2018-04-20T19:07:39.773Z,21.03
2018-04-20T19:28:11.970Z,19.85
2018-04-20T19:48:47.241Z,19.55
2018-04-20T20:09:24.050Z,18.89
2018-04-20T20:29:58.702Z,18.35
2018-04-20T20:50:30.905Z,17.84
2018-04-20T21:11:09.248Z,17.31
2018-04-20T21:31:42.381Z,16.57
2018-04-20T21:52:17.860Z,16.18
2018-04-20T22:12:53.837Z,15.80
2018-04-20T22:33:26.041Z,15.47
2018-04-20T22:54:02.227Z,15.23
2018-04-20T23:14:38.781Z,14.64
2018-04-20T23:35:12.470Z,14.24
2018-04-20T23:55:47.127Z,13.97
